Ula — CRA6220 — position and weather

sailwx.info

Track history (hours):
 
Tides and Currents Weather Stations Pressure Air Temp Water Temp Dewpoint Dewpoint Depression Visibility Wind Speed Wind Dir Waves Ship Positions

Ula

Last reported at 2015-Jun-21 14:06 UTC. Time now 2015-Jul-03 20:19 UTC.
Position N 38°42' W 009°09'.
Warning: this ship's position is 12 days out of date.

Length 13 m.

Type: Sailing vessel. MMSI: 263945960.

Date/timePositionNaut miles runAvg speedWind from/ knotsBaromVisibWave heightAir tempDewpointWater temp
2015-Jun-21 14:06N 38°42' W 009°09'4 8.0
2015-Jun-21 13:33N 38°41' W 009°15'8 7.0
2015-Jun-21 12:26N 38°42' W 009°25'0 0.0
2015-Jun-20 22:32N 38°41' W 009°25'0 0.0
2015-Jun-20 15:26N 38°41' W 009°25'1 0.7
2015-Jun-20 14:33N 38°42' W 009°25'1 0.7
2015-Jun-20 13:30N 38°42' W 009°24'4 4.1
2015-Jun-20 12:30N 38°41' W 009°19'3 3.4
2015-Jun-20 11:32N 38°41' W 009°14'  
Track history (hours):
 
Tides and Currents Weather Stations Pressure Air Temp Water Temp Dewpoint Dewpoint Depression Visibility Wind Speed Wind Dir Waves Ship Positions

Ula

Last reported at 2015-Jun-21 14:06 UTC. Time now 2015-Jul-03 20:19 UTC.
Position N 38°42' W 009°09'.
Warning: this ship's position is 12 days out of date.

Length 13 m.

Type: Sailing vessel. MMSI: 263945960.

Date/timePositionNaut miles runAvg speedWind from/ knotsBaromVisibWave heightAir tempDewpointWater temp
2015-Jun-21 14:06N 38°42' W 009°09'4 8.0
2015-Jun-21 13:33N 38°41' W 009°15'8 7.0
2015-Jun-21 12:26N 38°42' W 009°25'0 0.0
2015-Jun-20 22:32N 38°41' W 009°25'0 0.0
2015-Jun-20 15:26N 38°41' W 009°25'1 0.7
2015-Jun-20 14:33N 38°42' W 009°25'1 0.7
2015-Jun-20 13:30N 38°42' W 009°24'4 4.1
2015-Jun-20 12:30N 38°41' W 009°19'3 3.4
2015-Jun-20 11:32N 38°41' W 009°14'  

Dump ship's entire track history